Ana Sayfa
METAR-TAF:

METAR-TAF

Havaalanları :

Grayling Army Airfield

Grayling, Michigan, Amerika Birleşik Devletleri

Enlem: 44-40-49N, Boylam: 084-43-44W, yükseklik: 353 m

Güncel hava durumu gözlemi

Rapor saat 23:58 UTC de 48 dakika önce yapıldı.
Sakin rüzgar
Sıcaklık 9°C
Nem 27%
Basınç 1020 hPa
Görüş mesafesi: 12.9 km
Açık gökyüzü

METAR: KGOV 052358Z AUTO 00000KT 8SM CLR 09/M09 A3012 RMK AO2 SLP218 T00901091 10127 20089 56004 $

Saat: 20:46 (00:46 UTC)


TAF: eksik

4.000'den fazla havaalanı için hava durumu gözlemleri ve tahminleri (METAR ve TAF raporları).

Kullanılabilir istasyonlar harita üzerinde sarı ve kırmızı noktalarla gösterilir.

İstasyonun adını görmek için fareyi noktanın üzerinde gezdirin.

Sonrasında hava gözlem ve tahminlerini görmek için tıklayın.

Haritayı değiştirmek için: yaklaştırmak için siyah artı işaretli yeşil düğmeye ve uzaklaştırmak için de eksi işaretli düğmeye hızla tıklayın; bitişik haritalar için yeşil okları kullanın.


METAR-TAF: